Oak Park, IL (60303)

12:52 PM CDT on July 26, 2016 (GMT -0500)
Oak Park | | Change Station

Elev 633 ft 41.90 °N, 87.78 °W | Updated 1 second ago

Mostly Cloudy
Mostly Cloudy
85.5 °F
Feels Like 88 °F
N
0.0
Wind Variable Wind from SSW
Gusts 2.0 mph

Today
High -- | Low -- °F
--% Chance of Precip.
Yesterday
High -- | Low -- °F
Precip. -- in
Pressure 30.02 in
Visibility 10.0 miles
Clouds Mostly Cloudy 6000 ft
Mostly Cloudy 25000 ft
Heat Index 88 °F
Dew Point 66 °F
Humidity 53%
Rainfall 0.00 in
Snow Depth Not available.
5:39 AM 8:15 PM
Waning Gibbous, 52% visible
METAR KMDW 261653Z 09007KT 10SM BKN060 BKN250 29/18 A3005 RMK AO2 SLP165 T02940178
Pressure 30.02 in
Visibility 10.0 miles
Clouds Mostly Cloudy 6000 ft
Mostly Cloudy 25000 ft
Heat Index 88 °F
Dew Point 66 °F
Humidity 53%
Rainfall 0.00 in
Snow Depth Not available.
5:39 AM 8:15 PM
Waning Gibbous, 52% visible
METAR KMDW 261653Z 09007KT 10SM BKN060 BKN250 29/18 A3005 RMK AO2 SLP165 T02940178

10-Day Weather Forecast

Almanac

Astronomy

Jul. 26, 2016 Rise Set
Actual Time
Civil Twilight
Nautical Twilight
Astronomical Twilight
Moon
Length of Visible Light
Length of Day
Tomorrow will be .
, % of the Moon is Illuminated

Today's Extremes

State Highs State Lows

Community

WunderPhotos

Upload Photos

1,927,650 photos uploaded!

WunderBlog® & News

Nearby

Air Quality

  Air Quality AQ Index Pollutant
Not available.

Snow Depth

Station Depth Elevation

Earthquake Activity

City Distance Mag. Time & Date
Minimum magnitude displayed is 2.5.

Coastal Water Temperatures

Place Temperature

Stations

Nearby Weather Stations

Station Location Temp. Windchill Dew Point Humidity Wind Precip. Elev Updated Type
                   

Watches & Warnings

There are currently no watches in effect.